Time;durP1;ratioP1;P1;durP2;ratioP2;P2;SDS_P1;SDS_P2;PMS_P1;PMS_P2;Temp;Humidity;BMP_temperature;BMP_pressure;BME280_temperature;BME280_humidity;BME280_pressure;Samples;Min_cycle;Max_cycle;Signal;HPM_P1;HPM_P2
2023/06/27 00:01:57;;;;;;;;;;;;;;;26.95;41.00;101938.97;5065499;28;20357;-72
2023/06/27 00:04:23;;;;;;;;;;;;;;;26.94;40.87;101943.59;5072069;28;20317;-72
2023/06/27 00:06:48;;;;;;;;;;;;;;;26.94;40.74;101946.31;5067523;28;19923;-73
2023/06/27 00:09:15;;;;;;;;;;;;;;;26.92;40.83;101946.50;5047630;28;19913;-72
2023/06/27 00:11:40;;;;;;;;;;;;;;;26.91;40.93;101947.56;5067288;28;19947;-72
2023/06/27 00:14:07;;;;;;;;;;;;;;;26.90;40.89;101948.59;5058851;28;19920;-73
2023/06/27 00:16:32;;;;;;;;;;;;;;;26.90;40.81;101951.34;5061518;28;19929;-72
2023/06/27 00:19:02;;;;;;;;;;;;;;;26.89;41.01;101948.81;5076703;28;19924;-72
2023/06/27 00:21:28;;;;;;;;;;;;;;;26.87;41.04;101949.00;5064943;28;19912;-72
2023/06/27 00:23:55;;;;;;;;;;;;;;;26.87;40.68;101954.44;5067761;28;19912;-72
2023/06/27 00:26:21;;;;;;;;;;;;;;;26.87;40.65;101950.88;5072289;28;19921;-72
2023/06/27 00:28:46;;;;;;;;;;;;;;;26.86;41.00;101952.78;5062397;28;19912;-73
2023/06/27 00:31:11;;;;;;;;;;;;;;;26.85;40.95;101953.81;5070351;28;19920;-72
2023/06/27 00:33:36;;;;;;;;;;;;;;;26.85;40.86;101947.53;5065019;28;19920;-72
2023/06/27 00:36:01;;;;;;;;;;;;;;;26.84;40.76;101946.66;5067663;28;19921;-72
2023/06/27 00:38:27;;;;;;;;;;;;;;;26.84;40.73;101943.91;5064405;28;19916;-72
2023/06/27 00:40:52;;;;;;;;;;;;;;;26.75;40.67;101931.47;5054346;28;19959;-73
2023/06/27 00:43:17;;;;;;;;;;;;;;;26.83;40.67;101947.69;5059952;28;19916;-72
2023/06/27 00:45:43;;;;;;;;;;;;;;;26.82;40.67;101939.72;5073937;28;19917;-73
2023/06/27 00:48:08;;;;;;;;;;;;;;;26.82;40.70;101945.16;5057087;28;19913;-72
2023/06/27 00:50:33;;;;;;;;;;;;;;;26.82;40.59;101939.72;5041800;28;19928;-73
2023/06/27 00:52:59;;;;;;;;;;;;;;;26.80;40.77;101941.78;5075065;28;19944;-72
2023/06/27 00:55:24;;;;;;;;;;;;;;;26.80;40.60;101937.16;5060113;28;19913;-72
2023/06/27 00:57:50;;;;;;;;;;;;;;;26.79;40.78;101935.47;5070283;28;19962;-72
2023/06/27 01:00:18;;;;;;;;;;;;;;;26.78;40.49;101933.81;5067608;28;19920;-72
2023/06/27 01:02:43;;;;;;;;;;;;;;;26.78;40.75;101930.22;5067472;28;19917;-72
2023/06/27 01:05:08;;;;;;;;;;;;;;;26.78;40.47;101932.97;5047421;28;19921;-72
2023/06/27 01:07:54;;;;;;;;;;;;;;;26.77;40.59;101928.56;5067862;28;20335;-72
2023/06/27 01:10:19;;;;;;;;;;;;;;;26.76;40.52;101922.25;5058667;28;19928;-72
2023/06/27 01:12:48;;;;;;;;;;;;;;;26.76;40.43;101918.66;5072815;28;19912;-72
2023/06/27 01:15:13;;;;;;;;;;;;;;;26.75;40.56;101922.44;5068282;28;19916;-72
2023/06/27 01:17:38;;;;;;;;;;;;;;;26.75;40.39;101916.97;5040788;28;19941;-72
2023/06/27 01:20:04;;;;;;;;;;;;;;;26.74;40.39;101920.75;5075707;28;19917;-72
2023/06/27 01:22:34;;;;;;;;;;;;;;;26.74;40.44;101918.88;5041927;28;19914;-72
2023/06/27 01:25:00;;;;;;;;;;;;;;;26.72;40.66;101917.34;5068841;28;20346;-72
2023/06/27 01:27:28;;;;;;;;;;;;;;;26.72;40.55;101917.34;5067785;28;19920;-72
2023/06/27 01:29:53;;;;;;;;;;;;;;;26.71;40.39;101924.69;5064533;28;20279;-72
2023/06/27 01:32:28;;;;;;;;;;;;;;;26.70;40.52;101916.72;5067546;28;20400;-72
2023/06/27 01:35:13;;;;;;;;;;;;;;;26.70;40.61;101912.09;5067160;28;19920;-72
2023/06/27 01:37:39;;;;;;;;;;;;;;;26.69;40.47;101918.63;5059117;28;20000;-72
2023/06/27 01:40:14;;;;;;;;;;;;;;;26.67;40.38;101912.50;5071080;28;19916;-72
2023/06/27 01:42:42;;;;;;;;;;;;;;;26.67;40.44;101917.94;5047734;28;19920;-72
2023/06/27 01:45:08;;;;;;;;;;;;;;;26.65;40.36;101920.88;5058930;28;19913;-72
2023/06/27 01:47:40;;;;;;;;;;;;;;;26.66;40.35;101921.72;5073353;28;19913;-72
2023/06/27 01:50:05;;;;;;;;;;;;;;;26.64;40.55;101929.28;5043268;28;20384;-72
2023/06/27 01:52:30;;;;;;;;;;;;;;;26.63;40.44;101924.84;5072630;28;20491;-73
2023/06/27 01:54:56;;;;;;;;;;;;;;;26.62;40.37;101929.44;5037259;28;19913;-72
2023/06/27 01:57:21;;;;;;;;;;;;;;;26.62;40.44;101920.44;5063119;28;20036;-72
2023/06/27 01:59:46;;;;;;;;;;;;;;;26.60;40.30;101919.78;5049172;28;20353;-72
2023/06/27 02:02:11;;;;;;;;;;;;;;;26.60;40.44;101920.63;5065570;28;19917;-72
2023/06/27 02:04:37;;;;;;;;;;;;;;;26.58;40.40;101919.13;5049763;28;19964;-72
2023/06/27 02:07:02;;;;;;;;;;;;;;;26.57;40.51;101923.75;5069200;28;19924;-72
2023/06/27 02:09:27;;;;;;;;;;;;;;;26.57;40.55;101926.47;5069577;28;19917;-72
2023/06/27 02:11:52;;;;;;;;;;;;;;;26.57;40.27;101921.03;5055827;28;19940;-72
2023/06/27 02:14:18;;;;;;;;;;;;;;;26.55;40.28;101919.50;5044353;28;20290;-72
2023/06/27 02:16:43;;;;;;;;;;;;;;;26.54;40.36;101924.13;5059941;28;20028;-72
2023/06/27 02:19:08;;;;;;;;;;;;;;;26.53;40.45;101916.16;5065394;28;19951;-72
2023/06/27 02:21:33;;;;;;;;;;;;;;;26.52;40.54;101915.31;5068703;28;19916;-72
2023/06/27 02:23:58;;;;;;;;;;;;;;;26.51;40.57;101916.34;5061354;28;19917;-72
2023/06/27 02:26:24;;;;;;;;;;;;;;;26.51;40.38;101912.78;5068598;28;19912;-72
2023/06/27 02:28:49;;;;;;;;;;;;;;;26.49;40.42;101915.69;5063500;28;19948;-72
2023/06/27 02:31:14;;;;;;;;;;;;;;;26.49;40.54;101914.84;5064853;28;19921;-72
2023/06/27 02:33:39;;;;;;;;;;;;;;;26.48;40.49;101907.72;5050019;28;19913;-72
2023/06/27 02:36:05;;;;;;;;;;;;;;;26.46;40.25;101907.91;5052216;28;19917;-72
2023/06/27 02:38:30;;;;;;;;;;;;;;;26.45;40.48;101908.94;5056686;28;19921;-72
2023/06/27 02:40:56;;;;;;;;;;;;;;;26.45;40.45;101916.28;5051571;28;19969;-72
2023/06/27 02:43:21;;;;;;;;;;;;;;;26.43;40.38;101903.66;5064801;28;20429;-72
2023/06/27 02:45:46;;;;;;;;;;;;;;;26.43;40.31;101911.00;5035046;28;19936;-72
2023/06/27 02:48:11;;;;;;;;;;;;;;;26.41;40.52;101904.88;5072648;28;20020;-72
2023/06/27 02:50:37;;;;;;;;;;;;;;;26.41;40.50;101911.19;5058312;28;19924;-72
2023/06/27 02:53:02;;;;;;;;;;;;;;;26.39;40.45;101913.25;5064873;28;19994;-72
2023/06/27 02:55:27;;;;;;;;;;;;;;;26.38;40.29;101917.03;5063253;28;19912;-72
2023/06/27 02:57:52;;;;;;;;;;;;;;;26.38;40.41;101914.31;5064883;28;19916;-72
2023/06/27 03:00:17;;;;;;;;;;;;;;;26.37;40.63;101915.31;5064557;28;19913;-72
2023/06/27 03:02:43;;;;;;;;;;;;;;;26.36;40.50;101913.66;5068182;28;20302;-72
2023/06/27 03:05:08;;;;;;;;;;;;;;;26.35;40.43;101913.84;5059979;28;19913;-72
2023/06/27 03:07:33;;;;;;;;;;;;;;;26.34;40.59;101910.28;5063633;28;19913;-72
2023/06/27 03:09:58;;;;;;;;;;;;;;;26.33;40.59;101916.75;5066855;28;19925;-72
2023/06/27 03:12:23;;;;;;;;;;;;;;;26.33;40.46;101915.91;5052874;28;20294;-72
2023/06/27 03:14:49;;;;;;;;;;;;;;;26.30;40.57;101919.88;5076012;28;20341;-72
2023/06/27 03:17:14;;;;;;;;;;;;;;;26.30;40.55;101913.59;5060629;28;19925;-72
2023/06/27 03:19:39;;;;;;;;;;;;;;;26.30;40.45;101921.78;5045082;28;19939;-72
2023/06/27 03:22:05;;;;;;;;;;;;;;;26.28;40.55;101916.50;5068026;28;19913;-72
2023/06/27 03:24:30;;;;;;;;;;;;;;;26.27;40.47;101919.44;5062309;28;19916;-72
2023/06/27 03:26:55;;;;;;;;;;;;;;;26.27;40.28;101916.69;5043831;28;19917;-72
2023/06/27 03:29:20;;;;;;;;;;;;;;;26.26;40.43;101920.47;5063927;28;20023;-72
2023/06/27 03:31:46;;;;;;;;;;;;;;;26.24;40.52;101915.19;5063668;28;19950;-72
2023/06/27 03:34:11;;;;;;;;;;;;;;;26.22;40.58;101909.09;5060341;28;19948;-72
2023/06/27 03:36:36;;;;;;;;;;;;;;;26.22;40.50;101914.56;5071592;28;19916;-72
2023/06/27 03:39:01;;;;;;;;;;;;;;;26.22;40.47;101913.72;5055506;28;20126;-72
2023/06/27 03:41:26;;;;;;;;;;;;;;;26.21;40.53;101917.47;5050727;28;19920;-72
2023/06/27 03:43:52;;;;;;;;;;;;;;;26.20;40.44;101924.78;5064575;28;19924;-72
2023/06/27 03:46:17;;;;;;;;;;;;;;;26.18;40.48;101919.53;5056555;28;19913;-72
2023/06/27 03:48:43;;;;;;;;;;;;;;;26.18;40.58;101921.44;5035985;28;19924;-72
2023/06/27 03:51:08;;;;;;;;;;;;;;;26.17;40.34;101922.47;5044929;28;19923;-73
2023/06/27 03:53:33;;;;;;;;;;;;;;;26.17;40.37;101923.31;5063157;28;19917;-72
2023/06/27 03:56:00;;;;;;;;;;;;;;;26.16;40.30;101912.59;5064210;28;19913;-72
2023/06/27 03:58:25;;;;;;;;;;;;;;;26.14;40.51;101920.97;5048593;28;19921;-72
2023/06/27 04:00:51;;;;;;;;;;;;;;;26.13;40.57;101919.28;5057159;28;19917;-72
2023/06/27 04:03:17;;;;;;;;;;;;;;;26.13;40.54;101922.00;5051283;28;19916;-72
2023/06/27 04:05:43;;;;;;;;;;;;;;;26.13;40.46;101910.28;5059528;28;19917;-72
2023/06/27 04:08:08;;;;;;;;;;;;;;;26.12;40.63;101914.88;5063641;28;19950;-72
2023/06/27 04:10:33;;;;;;;;;;;;;;;26.11;40.48;101907.72;5067635;28;19964;-72
2023/06/27 04:12:58;;;;;;;;;;;;;;;26.10;40.40;101908.75;5055667;28;19912;-72
2023/06/27 04:15:24;;;;;;;;;;;;;;;26.10;40.34;101905.19;5070867;28;19924;-72
2023/06/27 04:17:49;;;;;;;;;;;;;;;26.08;40.35;101902.66;5059580;28;19920;-72
2023/06/27 04:20:14;;;;;;;;;;;;;;;26.08;40.43;101916.31;5061689;28;20324;-72
2023/06/27 04:22:39;;;;;;;;;;;;;;;26.08;40.59;101905.41;5067107;28;19923;-72
2023/06/27 04:25:08;;;;;;;;;;;;;;;26.08;40.53;101904.53;5063632;28;20370;-72
2023/06/27 04:27:35;;;;;;;;;;;;;;;26.07;40.50;101902.84;5057553;28;22627;-72
2023/06/27 04:30:00;;;;;;;;;;;;;;;26.07;40.41;101911.03;5067387;28;19917;-72
2023/06/27 04:32:25;;;;;;;;;;;;;;;26.06;40.62;101901.16;5063071;28;19965;-72
2023/06/27 04:34:50;;;;;;;;;;;;;;;26.06;40.32;101902.00;5056897;28;19916;-72
2023/06/27 04:37:18;;;;;;;;;;;;;;;26.05;40.57;101903.03;5071669;28;20068;-72
2023/06/27 04:39:43;;;;;;;;;;;;;;;26.06;40.60;101909.34;5054174;28;19905;-72
2023/06/27 04:42:09;;;;;;;;;;;;;;;26.04;40.45;101905.94;5050596;28;19976;-72
2023/06/27 04:44:35;;;;;;;;;;;;;;;26.04;40.56;101905.94;5066186;28;19913;-72
2023/06/27 04:47:00;;;;;;;;;;;;;;;26.04;40.61;101911.41;5062438;28;19965;-72
2023/06/27 04:49:25;;;;;;;;;;;;;;;26.03;40.69;101912.44;5069614;28;19912;-72
2023/06/27 04:51:50;;;;;;;;;;;;;;;26.04;40.71;101914.13;5066580;28;19917;-72
2023/06/27 04:54:15;;;;;;;;;;;;;;;26.03;40.52;101915.16;5050922;28;19944;-72
2023/06/27 04:56:41;;;;;;;;;;;;;;;26.04;40.44;101911.41;5067214;28;19913;-72
2023/06/27 04:59:06;;;;;;;;;;;;;;;26.03;40.66;101912.44;5070449;28;20091;-72
2023/06/27 05:01:31;;;;;;;;;;;;;;;26.03;40.70;101915.16;5058514;28;19924;-72
2023/06/27 05:04:04;;;;;;;;;;;;;;;25.74;40.48;101867.00;5059774;28;19935;-72
2023/06/27 05:06:29;;;;;;;;;;;;;;;26.03;40.47;101901.53;5061737;28;19936;-72
2023/06/27 05:08:54;;;;;;;;;;;;;;;26.03;40.70;101912.44;5065243;28;19916;-72
2023/06/27 05:11:19;;;;;;;;;;;;;;;26.03;40.51;101907.81;5069152;28;19916;-72
2023/06/27 05:13:44;;;;;;;;;;;;;;;26.04;40.73;101912.25;5061042;28;19913;-72
2023/06/27 05:16:10;;;;;;;;;;;;;;;26.04;40.62;101912.25;5071774;28;19921;-72
2023/06/27 05:18:35;;;;;;;;;;;;;;;26.04;40.56;101908.66;5035722;28;20436;-72
2023/06/27 05:21:00;;;;;;;;;;;;;;;26.03;40.69;101902.38;5064624;28;19913;-72
2023/06/27 05:23:25;;;;;;;;;;;;;;;26.04;40.71;101911.41;5052157;28;19913;-72
2023/06/27 05:25:51;;;;;;;;;;;;;;;26.03;40.66;101916.00;5069552;28;19913;-72
2023/06/27 05:28:16;;;;;;;;;;;;;;;26.04;40.69;101908.66;5037627;28;19917;-72
2023/06/27 05:30:41;;;;;;;;;;;;;;;26.04;40.74;101919.56;5055175;28;19916;-72
2023/06/27 05:33:07;;;;;;;;;;;;;;;26.03;40.68;101910.56;5046477;28;19924;-72
2023/06/27 05:35:32;;;;;;;;;;;;;;;26.04;40.67;101916.84;5042825;28;19920;-72
2023/06/27 05:37:58;;;;;;;;;;;;;;;26.03;40.70;101917.88;5072789;28;19913;-72
2023/06/27 05:40:23;;;;;;;;;;;;;;;26.04;40.54;101919.56;5050094;28;19928;-72
2023/06/27 05:42:48;;;;;;;;;;;;;;;26.03;40.80;101916.00;5050940;28;19958;-72
2023/06/27 05:45:13;;;;;;;;;;;;;;;26.04;40.56;101916.84;5052720;28;19944;-72
2023/06/27 05:47:39;;;;;;;;;;;;;;;26.02;40.69;101914.31;5065396;28;20099;-72
2023/06/27 05:50:05;;;;;;;;;;;;;;;26.02;40.87;101910.75;5046457;28;20379;-72
2023/06/27 05:52:30;;;;;;;;;;;;;;;26.02;40.85;101910.75;5049002;28;20401;-72
2023/06/27 05:54:55;;;;;;;;;;;;;;;26.02;40.89;101916.22;5060324;28;19933;-72
2023/06/27 05:57:21;;;;;;;;;;;;;;;26.01;40.39;101917.25;5066869;28;19912;-72
2023/06/27 05:59:47;;;;;;;;;;;;;;;26.01;40.89;101919.97;5066660;28;19913;-72
2023/06/27 06:02:12;;;;;;;;;;;;;;;26.00;40.77;101924.59;5052487;28;20370;-71
2023/06/27 06:04:37;;;;;;;;;;;;;;;26.01;40.82;101925.44;5075717;28;19916;-71
2023/06/27 06:07:03;;;;;;;;;;;;;;;26.00;40.72;101927.31;5060466;28;19927;-72
2023/06/27 06:09:29;;;;;;;;;;;;;;;25.99;40.83;101920.16;5048425;28;19924;-72
2023/06/27 06:11:55;;;;;;;;;;;;;;;26.00;40.71;101921.00;5066349;28;19947;-72
2023/06/27 06:14:20;;;;;;;;;;;;;;;25.99;40.79;101920.16;5061692;28;19912;-72
2023/06/27 06:16:45;;;;;;;;;;;;;;;25.99;40.66;101922.03;5065184;28;19920;-72
2023/06/27 06:19:11;;;;;;;;;;;;;;;25.98;40.82;101923.91;5063960;28;19913;-72
2023/06/27 06:21:37;;;;;;;;;;;;;;;25.98;40.95;101925.81;5063169;28;19920;-72
2023/06/27 06:24:02;;;;;;;;;;;;;;;25.97;40.77;101935.84;5063833;28;19917;-72
2023/06/27 06:26:27;;;;;;;;;;;;;;;25.96;40.82;101930.63;5053286;28;20431;-72
2023/06/27 06:28:53;;;;;;;;;;;;;;;25.96;40.88;101930.63;5055413;28;19928;-72
2023/06/27 06:31:19;;;;;;;;;;;;;;;25.96;40.91;101938.78;5054714;28;19921;-72
2023/06/27 06:33:44;;;;;;;;;;;;;;;25.96;41.02;101933.34;5063598;28;19936;-72
2023/06/27 06:36:10;;;;;;;;;;;;;;;25.94;41.00;101933.50;5027910;28;19913;-71
2023/06/27 06:38:35;;;;;;;;;;;;;;;25.93;41.02;101940.00;5056384;28;19916;-71
2023/06/27 06:41:01;;;;;;;;;;;;;;;25.93;40.95;101938.13;5059959;28;19913;-71
2023/06/27 06:43:26;;;;;;;;;;;;;;;25.93;41.11;101940.00;5067203;28;19919;-71
2023/06/27 06:45:52;;;;;;;;;;;;;;;25.92;41.15;101944.63;5050329;28;19916;-72
2023/06/27 06:48:17;;;;;;;;;;;;;;;25.92;41.16;101947.34;5048141;28;19920;-71
2023/06/27 06:50:42;;;;;;;;;;;;;;;25.91;41.26;101948.38;5061323;28;20019;-72
2023/06/27 06:53:07;;;;;;;;;;;;;;;25.91;41.08;101953.81;5068351;28;19960;-71
2023/06/27 06:55:32;;;;;;;;;;;;;;;25.91;41.13;101942.94;5059034;28;19917;-72
2023/06/27 06:57:58;;;;;;;;;;;;;;;25.90;40.98;101940.38;5067030;28;19916;-71
2023/06/27 07:00:23;;;;;;;;;;;;;;;25.90;41.18;101945.81;5067038;28;20754;-71
2023/06/27 07:02:48;;;;;;;;;;;;;;;25.90;41.10;101948.53;5054885;28;20440;-71
2023/06/27 07:05:13;;;;;;;;;;;;;;;25.89;41.04;101947.72;5073686;28;19913;-72
2023/06/27 07:07:38;;;;;;;;;;;;;;;25.89;41.14;101941.41;5059769;28;20425;-72
2023/06/27 07:10:04;;;;;;;;;;;;;;;25.88;41.35;101942.47;5063556;28;20902;-72
2023/06/27 07:12:29;;;;;;;;;;;;;;;25.88;41.16;101943.31;5066300;28;19935;-72
2023/06/27 07:14:54;;;;;;;;;;;;;;;25.88;41.28;101943.31;5062763;28;19913;-72
2023/06/27 07:17:19;;;;;;;;;;;;;;;25.87;41.23;101940.75;5063110;28;19924;-71
2023/06/27 07:19:45;;;;;;;;;;;;;;;25.87;41.24;101938.91;5052557;28;19919;-73
2023/06/27 07:22:10;;;;;;;;;;;;;;;25.86;41.24;101937.19;5062139;28;19913;-71
2023/06/27 07:24:35;;;;;;;;;;;;;;;25.87;41.25;101943.47;5058912;28;20285;-71
2023/06/27 07:27:01;;;;;;;;;;;;;;;25.87;41.18;101938.03;5071005;28;19920;-72
2023/06/27 07:29:26;;;;;;;;;;;;;;;25.86;41.36;101937.19;5055096;28;20016;-72
2023/06/27 07:31:51;;;;;;;;;;;;;;;25.86;41.36;101948.06;5070073;28;20023;-72
2023/06/27 07:34:16;;;;;;;;;;;;;;;25.86;41.31;101939.91;5058440;28;20002;-73
2023/06/27 07:36:42;;;;;;;;;;;;;;;25.86;41.38;101944.50;5058784;28;19920;-72
2023/06/27 07:39:07;;;;;;;;;;;;;;;25.86;41.47;101942.63;5069322;28;19955;-72
2023/06/27 07:41:32;;;;;;;;;;;;;;;25.87;41.23;101954.38;5060670;28;19959;-71
2023/06/27 07:43:58;;;;;;;;;;;;;;;25.86;41.41;101944.50;5060169;28;19957;-72
2023/06/27 07:46:23;;;;;;;;;;;;;;;25.85;41.41;101940.09;5048786;28;19987;-71
2023/06/27 07:48:48;;;;;;;;;;;;;;;25.84;41.29;101936.53;5067291;28;19917;-72
2023/06/27 07:51:13;;;;;;;;;;;;;;;25.83;41.37;101945.75;5061328;28;20373;-71
2023/06/27 07:53:39;;;;;;;;;;;;;;;25.84;41.37;101946.59;5056051;28;19912;-71
2023/06/27 07:56:04;;;;;;;;;;;;;;;25.84;41.39;101938.44;5058304;28;19917;-72
2023/06/27 07:58:29;;;;;;;;;;;;;;;25.83;41.27;101936.75;5067208;28;20297;-71
2023/06/27 08:00:54;;;;;;;;;;;;;;;25.82;41.49;101935.03;5066172;28;20000;-71
2023/06/27 08:03:20;;;;;;;;;;;;;;;25.81;41.33;101934.19;5055138;28;20471;-72
2023/06/27 08:05:45;;;;;;;;;;;;;;;25.81;41.39;101936.06;5069957;28;20281;-72
2023/06/27 08:08:10;;;;;;;;;;;;;;;25.81;41.24;101936.06;5058526;28;20515;-72
2023/06/27 08:10:35;;;;;;;;;;;;;;;25.81;41.32;101934.19;5049380;28;19981;-72
2023/06/27 08:13:00;;;;;;;;;;;;;;;25.81;41.27;101933.34;5066212;28;19917;-72
2023/06/27 08:15:26;;;;;;;;;;;;;;;25.80;41.42;101929.78;5068874;28;19913;-72
2023/06/27 08:17:51;;;;;;;;;;;;;;;25.81;41.40;101930.63;5059606;28;20267;-72
2023/06/27 08:20:17;;;;;;;;;;;;;;;25.80;41.32;101932.50;5057069;28;19913;-72
2023/06/27 08:22:43;;;;;;;;;;;;;;;25.79;41.52;101928.09;5065549;28;20332;-72
2023/06/27 08:25:08;;;;;;;;;;;;;;;25.79;41.44;101935.44;5062515;28;19913;-72
2023/06/27 08:27:33;;;;;;;;;;;;;;;25.80;41.51;101942.56;5073786;28;20293;-72
2023/06/27 08:29:58;;;;;;;;;;;;;;;25.79;41.43;101933.53;5058049;28;19912;-71
2023/06/27 08:32:24;;;;;;;;;;;;;;;25.80;41.37;101939.84;5072811;28;19917;-72
2023/06/27 08:34:49;;;;;;;;;;;;;;;25.78;41.46;101929.09;5065560;28;19917;-72
2023/06/27 08:37:14;;;;;;;;;;;;;;;25.79;41.32;101927.25;5067050;28;19913;-71
2023/06/27 08:39:39;;;;;;;;;;;;;;;25.79;41.38;101929.97;5053969;28;19974;-71
2023/06/27 08:42:05;;;;;;;;;;;;;;;25.79;41.27;101924.53;5069549;28;19942;-71
2023/06/27 08:44:30;;;;;;;;;;;;;;;25.78;41.15;101929.09;5059612;28;19920;-72
2023/06/27 08:46:56;;;;;;;;;;;;;;;25.79;41.23;101927.25;5069439;28;19952;-71
2023/06/27 08:49:22;;;;;;;;;;;;;;;25.78;41.32;101925.53;5051994;28;19913;-72
2023/06/27 08:51:48;;;;;;;;;;;;;;;25.80;41.19;101926.22;5055925;28;19917;-72
2023/06/27 08:54:17;;;;;;;;;;;;;;;25.79;41.21;101924.53;5058443;28;20004;-72
2023/06/27 08:56:42;;;;;;;;;;;;;;;25.79;41.37;101928.09;5060707;28;19913;-72
2023/06/27 08:59:08;;;;;;;;;;;;;;;25.79;41.21;101928.09;5070945;28;19913;-72
2023/06/27 09:01:34;;;;;;;;;;;;;;;25.80;41.01;101920.75;5067640;28;19924;-72
2023/06/27 09:03:59;;;;;;;;;;;;;;;25.80;41.15;101920.75;5064737;28;20293;-71
2023/06/27 09:06:24;;;;;;;;;;;;;;;25.80;41.17;101912.59;5051084;28;20448;-72
2023/06/27 09:08:50;;;;;;;;;;;;;;;25.81;41.04;101919.72;5046349;28;19916;-72
2023/06/27 09:11:15;;;;;;;;;;;;;;;25.81;41.15;101928.75;5046479;28;19924;-72
2023/06/27 09:13:40;;;;;;;;;;;;;;;25.81;41.03;101926.00;5068398;28;20365;-72
2023/06/27 09:16:06;;;;;;;;;;;;;;;25.81;41.18;101923.28;5072496;28;19965;-72
2023/06/27 09:18:31;;;;;;;;;;;;;;;25.81;41.21;101928.75;5055482;28;19913;-72
2023/06/27 09:20:57;;;;;;;;;;;;;;;25.82;41.12;101924.97;5057861;28;19968;-71
2023/06/27 09:23:22;;;;;;;;;;;;;;;25.83;40.90;101925.84;5064292;28;19924;-71
2023/06/27 09:26:04;;;;;;;;;;;;;;;25.82;41.04;101924.97;5046604;28;19919;-72
2023/06/27 09:28:29;;;;;;;;;;;;;;;25.83;40.91;101915.78;5067174;28;19920;-72
2023/06/27 09:30:55;;;;;;;;;;;;;;;25.83;40.89;101921.25;5062579;28;19925;-72
2023/06/27 09:33:20;;;;;;;;;;;;;;;25.84;41.09;101928.38;5055876;28;19916;-72
2023/06/27 09:35:46;;;;;;;;;;;;;;;25.84;41.00;101922.06;5047531;28;19920;-72
2023/06/27 09:38:11;;;;;;;;;;;;;;;25.85;41.19;101923.75;5048185;28;19916;-72
2023/06/27 09:40:36;;;;;;;;;;;;;;;25.85;41.05;101926.47;5051712;28;20374;-72
2023/06/27 09:43:02;;;;;;;;;;;;;;;25.86;41.02;101933.63;5072528;28;20448;-72
2023/06/27 09:45:29;;;;;;;;;;;;;;;25.86;41.07;101930.88;5039799;28;19940;-71
2023/06/27 09:47:54;;;;;;;;;;;;;;;25.86;40.98;101930.88;5072077;28;19918;-71
2023/06/27 09:50:29;;;;;;;;;;;;;;;25.85;40.89;101932.78;5067958;28;19917;-72
2023/06/27 09:52:57;;;;;;;;;;;;;;;25.86;40.96;101933.63;5062058;28;19912;-71
2023/06/27 09:55:22;;;;;;;;;;;;;;;25.86;40.82;101933.63;5072591;28;19966;-71
2023/06/27 09:57:47;;;;;;;;;;;;;;;25.85;41.08;101924.59;5059926;28;19913;-72
2023/06/27 10:00:13;;;;;;;;;;;;;;;25.86;40.75;101929.00;5068311;28;20015;-72
2023/06/27 10:02:39;;;;;;;;;;;;;;;25.87;40.86;101935.28;5052475;28;19919;-72
2023/06/27 10:05:04;;;;;;;;;;;;;;;25.87;40.88;101929.84;5067308;28;19913;-71
2023/06/27 10:07:30;;;;;;;;;;;;;;;25.87;40.86;101932.56;5047616;28;20000;-72
2023/06/27 10:09:55;;;;;;;;;;;;;;;25.87;40.81;101933.44;5070361;28;19916;-71
2023/06/27 10:12:20;;;;;;;;;;;;;;;25.88;40.86;101934.28;5058471;28;19917;-71
2023/06/27 10:14:46;;;;;;;;;;;;;;;25.87;40.86;101936.16;5068789;28;19920;-71
2023/06/27 10:17:17;;;;;;;;;;;;;;;25.87;40.92;101936.16;5067718;28;19926;-72
2023/06/27 10:19:42;;;;;;;;;;;;;;;25.88;40.81;101932.41;5060608;28;19917;-71
2023/06/27 10:22:10;;;;;;;;;;;;;;;25.88;40.70;101926.94;5073395;28;19967;-72
2023/06/27 10:24:38;;;;;;;;;;;;;;;25.90;40.82;101929.47;5041168;28;19913;-72
2023/06/27 10:27:07;;;;;;;;;;;;;;;25.91;40.80;101922.97;5052297;28;19916;-72
2023/06/27 10:29:32;;;;;;;;;;;;;;;25.91;40.81;101928.44;5066157;28;19935;-72
2023/06/27 10:31:57;;;;;;;;;;;;;;;25.91;40.86;101932.03;5065127;28;19917;-72
2023/06/27 10:34:24;;;;;;;;;;;;;;;25.93;40.67;101934.56;5046361;28;19922;-71
2023/06/27 10:36:50;;;;;;;;;;;;;;;25.92;40.64;101928.25;5067901;28;19913;-72
2023/06/27 10:39:23;;;;;;;;;;;;;;;25.93;40.85;101920.94;5060943;28;20051;-71
2023/06/27 10:41:49;;;;;;;;;;;;;;;25.93;40.58;101918.19;5049239;28;19912;-71
2023/06/27 10:44:14;;;;;;;;;;;;;;;25.94;40.46;101933.50;5069147;28;19944;-72
2023/06/27 10:46:39;;;;;;;;;;;;;;;25.94;40.54;101925.34;5051819;28;19936;-72
2023/06/27 10:49:06;;;;;;;;;;;;;;;25.96;40.71;101926.00;5074636;28;19912;-72
2023/06/27 10:51:35;;;;;;;;;;;;;;;25.96;40.48;101927.88;5058740;28;19939;-72
2023/06/27 10:54:06;;;;;;;;;;;;;;;25.97;40.38;101924.13;5045909;28;19912;-72
2023/06/27 10:56:32;;;;;;;;;;;;;;;25.98;40.69;101917.63;5063509;28;19913;-72
2023/06/27 10:59:01;;;;;;;;;;;;;;;25.99;40.64;101922.03;5063650;28;19988;-72
2023/06/27 11:01:26;;;;;;;;;;;;;;;25.99;40.55;101927.47;5049447;28;19912;-72
2023/06/27 11:03:57;;;;;;;;;;;;;;;26.00;40.71;101929.16;5048204;28;19948;-72
2023/06/27 11:06:23;;;;;;;;;;;;;;;26.00;40.75;101934.63;5044086;28;19920;-72
2023/06/27 11:08:54;;;;;;;;;;;;;;;26.00;40.63;101926.44;5063896;28;19913;-72
2023/06/27 11:11:22;;;;;;;;;;;;;;;26.01;40.52;101922.69;5067791;28;19921;-72
2023/06/27 11:13:49;;;;;;;;;;;;;;;26.02;40.67;101922.50;5037733;28;20388;-72
2023/06/27 11:16:14;;;;;;;;;;;;;;;26.03;40.69;101920.63;5075864;28;19925;-72
2023/06/27 11:18:39;;;;;;;;;;;;;;;26.05;40.66;101913.09;5059134;28;19913;-72
2023/06/27 11:21:04;;;;;;;;;;;;;;;26.05;40.45;101927.56;5062772;28;19961;-72
2023/06/27 11:23:30;;;;;;;;;;;;;;;26.05;40.73;101932.19;5068332;28;19921;-72
2023/06/27 11:25:55;;;;;;;;;;;;;;;26.07;40.62;101936.38;5059811;28;19968;-72
2023/06/27 11:28:21;;;;;;;;;;;;;;;26.08;40.46;101946.28;5065175;28;19963;-72
2023/06/27 11:30:47;;;;;;;;;;;;;;;26.10;40.44;101940.63;5063988;28;19920;-72
2023/06/27 11:33:15;;;;;;;;;;;;;;;26.11;40.49;101940.41;5046568;28;19924;-72
2023/06/27 11:35:40;;;;;;;;;;;;;;;26.13;40.35;101934.81;5062503;28;19913;-72
2023/06/27 11:38:06;;;;;;;;;;;;;;;26.14;40.56;101939.22;5070545;28;19920;-72
2023/06/27 11:40:31;;;;;;;;;;;;;;;26.15;40.39;101929.97;5047621;28;19913;-72
2023/06/27 11:43:01;;;;;;;;;;;;;;;26.16;40.31;101937.97;5069957;28;19912;-72
2023/06/27 11:45:26;;;;;;;;;;;;;;;26.18;40.38;101930.44;5063687;28;19920;-72
2023/06/27 11:47:53;;;;;;;;;;;;;;;26.20;40.44;101927.53;5054726;28;19912;-72
2023/06/27 11:50:18;;;;;;;;;;;;;;;26.21;40.38;101926.50;5053960;28;19917;-72
2023/06/27 11:52:43;;;;;;;;;;;;;;;26.23;40.61;101923.56;5058870;28;19955;-72
2023/06/27 11:55:09;;;;;;;;;;;;;;;26.24;40.52;101927.97;5048935;28;20003;-72
2023/06/27 11:57:47;;;;;;;;;;;;;;;26.24;40.42;101936.16;5044967;28;19913;-72
2023/06/27 12:00:13;;;;;;;;;;;;;;;26.25;40.38;101935.13;5065829;28;19917;-72
2023/06/27 12:02:38;;;;;;;;;;;;;;;26.26;40.58;101932.22;5061408;28;19923;-72
2023/06/27 12:05:04;;;;;;;;;;;;;;;26.27;40.38;101935.78;5050478;28;19913;-72
2023/06/27 12:07:30;;;;;;;;;;;;;;;26.29;40.38;101933.69;5057475;28;20024;-72
2023/06/27 12:10:08;;;;;;;;;;;;;;;26.30;40.68;101928.06;5068452;28;19971;-72
2023/06/27 12:12:34;;;;;;;;;;;;;;;26.33;40.42;101937.72;5063978;28;19913;-72
2023/06/27 12:15:12;;;;;;;;;;;;;;;26.35;40.42;101932.94;5038040;28;19921;-72
2023/06/27 12:17:37;;;;;;;;;;;;;;;26.37;40.60;101922.66;5070689;28;19925;-72
2023/06/27 12:20:04;;;;;;;;;;;;;;;26.39;40.55;101926.06;5057739;28;19924;-73
2023/06/27 12:22:30;;;;;;;;;;;;;;;26.41;40.53;101926.69;5051418;28;20012;-72
2023/06/27 12:24:55;;;;;;;;;;;;;;;26.43;40.63;101914.56;5061877;28;19923;-73
2023/06/27 12:27:20;;;;;;;;;;;;;;;26.45;40.68;101919.00;5065764;28;19917;-72
2023/06/27 12:29:45;;;;;;;;;;;;;;;26.46;40.63;101912.50;5063121;28;20354;-72